createdAt,value
2018-08-30T00:01:53.519Z,19.70
2018-08-30T00:04:22.095Z,19.70
2018-08-30T00:06:50.352Z,19.70
2018-08-30T00:09:18.564Z,19.70
2018-08-30T00:11:46.841Z,19.70
2018-08-30T00:14:15.089Z,19.70
2018-08-30T00:16:43.265Z,19.60
2018-08-30T00:19:11.574Z,19.60
2018-08-30T00:21:39.833Z,19.60
2018-08-30T00:24:08.137Z,19.50
2018-08-30T00:26:36.383Z,19.50
2018-08-30T00:29:04.615Z,19.50
2018-08-30T00:31:32.867Z,19.40
2018-08-30T00:34:01.166Z,19.40
2018-08-30T00:36:29.396Z,19.40
2018-08-30T00:38:57.637Z,19.40
2018-08-30T00:41:25.884Z,19.30
2018-08-30T00:43:54.091Z,19.40
2018-08-30T00:46:22.295Z,19.30
2018-08-30T00:48:50.543Z,19.30
2018-08-30T00:51:18.775Z,19.30
2018-08-30T00:53:47.030Z,19.20
2018-08-30T00:56:15.276Z,19.30
2018-08-30T00:58:43.478Z,19.20
2018-08-30T01:01:11.731Z,19.30
2018-08-30T01:03:39.930Z,19.30
2018-08-30T01:06:08.209Z,19.30
2018-08-30T01:08:36.484Z,19.30
2018-08-30T01:11:04.793Z,19.30
2018-08-30T01:13:33.046Z,19.40
2018-08-30T01:16:01.314Z,19.30
2018-08-30T01:18:29.542Z,19.30
2018-08-30T01:20:57.780Z,19.20
2018-08-30T01:23:26.627Z,19.20
2018-08-30T01:25:54.926Z,19.10
2018-08-30T01:28:23.204Z,19.20
2018-08-30T01:30:51.473Z,19.20
2018-08-30T01:33:19.769Z,19.20
2018-08-30T01:35:48.024Z,19.20
2018-08-30T01:38:16.237Z,19.20
2018-08-30T01:40:44.501Z,19.20
2018-08-30T01:43:12.768Z,19.20
2018-08-30T01:45:41.653Z,19.10
2018-08-30T01:48:09.922Z,19.20
2018-08-30T01:50:38.227Z,19.20
2018-08-30T01:53:06.483Z,19.20
2018-08-30T01:55:34.759Z,19.30
2018-08-30T01:58:03.035Z,19.30
2018-08-30T02:00:31.302Z,19.40
2018-08-30T02:02:59.591Z,19.30
2018-08-30T02:05:27.847Z,19.30
2018-08-30T02:07:56.151Z,19.30
2018-08-30T02:10:24.422Z,19.40
2018-08-30T02:12:52.674Z,19.30
2018-08-30T02:15:20.919Z,19.30
2018-08-30T02:17:49.151Z,19.40
2018-08-30T02:20:17.430Z,19.40
2018-08-30T02:22:45.694Z,19.40
2018-08-30T02:25:13.886Z,19.30
2018-08-30T02:27:42.143Z,19.30
2018-08-30T02:30:10.423Z,19.40
2018-08-30T02:32:38.706Z,19.40
2018-08-30T02:35:06.946Z,19.40
2018-08-30T02:37:35.218Z,19.40
2018-08-30T02:40:03.579Z,19.40
2018-08-30T02:42:31.802Z,19.40
2018-08-30T02:45:00.055Z,19.50
2018-08-30T02:47:28.350Z,19.40
2018-08-30T02:49:56.533Z,19.40
2018-08-30T02:52:24.804Z,19.50
2018-08-30T02:54:53.031Z,19.50
2018-08-30T02:57:21.250Z,19.50
2018-08-30T02:59:49.531Z,19.50
2018-08-30T03:02:17.806Z,19.50
2018-08-30T03:04:46.081Z,19.50
2018-08-30T03:07:14.302Z,19.50
2018-08-30T03:09:42.511Z,19.60
2018-08-30T03:12:10.720Z,19.60
2018-08-30T03:14:38.985Z,19.60
2018-08-30T03:17:07.246Z,19.60
2018-08-30T03:19:35.534Z,19.50
2018-08-30T03:22:03.754Z,19.50
2018-08-30T03:24:32.067Z,19.30
2018-08-30T03:27:00.307Z,19.10
2018-08-30T03:29:28.531Z,18.90
2018-08-30T03:31:56.740Z,18.80
2018-08-30T03:34:24.975Z,18.80
2018-08-30T03:36:53.206Z,18.70
2018-08-30T03:39:21.430Z,18.80
2018-08-30T03:41:49.686Z,18.70
2018-08-30T03:44:17.952Z,18.80
2018-08-30T03:46:46.207Z,18.80
2018-08-30T03:49:14.430Z,18.80
2018-08-30T03:51:42.660Z,18.80
2018-08-30T03:54:10.847Z,18.90
2018-08-30T03:56:39.233Z,18.90
2018-08-30T03:59:07.487Z,19.00
2018-08-30T04:01:35.762Z,19.00
2018-08-30T04:04:03.972Z,19.00
2018-08-30T04:06:32.213Z,19.00
2018-08-30T04:09:00.457Z,19.00
2018-08-30T04:11:28.768Z,19.00
2018-08-30T04:13:57.045Z,19.00
2018-08-30T04:16:25.288Z,19.00
2018-08-30T04:18:58.199Z,19.00
2018-08-30T04:21:26.477Z,18.90
2018-08-30T04:23:54.714Z,18.90
2018-08-30T04:26:22.937Z,18.90
2018-08-30T04:28:51.183Z,19.00
2018-08-30T04:31:19.477Z,19.00
2018-08-30T04:33:47.717Z,19.00
2018-08-30T04:36:15.979Z,19.00
2018-08-30T04:38:44.203Z,19.00
2018-08-30T04:41:12.431Z,19.10
2018-08-30T04:43:40.632Z,19.10
2018-08-30T04:46:08.879Z,19.10
2018-08-30T04:48:37.817Z,19.10
2018-08-30T04:51:06.163Z,19.10
2018-08-30T04:53:34.447Z,19.10
2018-08-30T04:56:03.021Z,19.10
2018-08-30T04:58:31.660Z,19.20
2018-08-30T05:01:00.226Z,19.20
2018-08-30T05:03:28.452Z,19.30
2018-08-30T05:05:56.958Z,19.30
2018-08-30T05:08:25.842Z,19.30
2018-08-30T05:10:54.066Z,19.30
2018-08-30T05:13:22.481Z,19.30
2018-08-30T05:15:51.058Z,19.30
2018-08-30T05:18:20.309Z,19.30
2018-08-30T05:20:48.640Z,19.20
2018-08-30T05:23:17.015Z,19.20
2018-08-30T05:25:45.300Z,19.30
2018-08-30T05:28:13.563Z,19.30
2018-08-30T05:30:41.792Z,19.20
2018-08-30T05:33:10.015Z,19.10
2018-08-30T05:35:38.313Z,19.10
2018-08-30T05:38:06.635Z,19.20
2018-08-30T05:40:34.897Z,19.20
2018-08-30T05:43:03.118Z,19.20
2018-08-30T05:45:31.388Z,19.10
2018-08-30T05:47:59.621Z,19.00
2018-08-30T05:50:27.869Z,18.80
2018-08-30T05:52:56.123Z,18.60
2018-08-30T05:55:24.511Z,18.50
2018-08-30T05:57:52.766Z,18.40
2018-08-30T06:00:21.051Z,18.20
2018-08-30T06:02:49.330Z,18.00
2018-08-30T06:05:17.612Z,17.90
2018-08-30T06:07:45.888Z,17.90
2018-08-30T06:10:14.160Z,17.80
2018-08-30T06:12:42.542Z,17.80
2018-08-30T06:15:10.787Z,17.90
2018-08-30T06:17:39.079Z,17.90
2018-08-30T06:20:07.353Z,17.90
2018-08-30T06:22:35.845Z,17.90
2018-08-30T06:25:04.170Z,17.90
2018-08-30T06:27:32.361Z,18.00
2018-08-30T06:30:00.618Z,18.10
2018-08-30T06:32:28.813Z,18.30
2018-08-30T06:34:57.203Z,18.30
2018-08-30T06:37:25.567Z,18.50
2018-08-30T06:39:53.843Z,18.60
2018-08-30T06:42:22.043Z,18.70
2018-08-30T06:44:50.356Z,18.80
2018-08-30T06:47:18.591Z,18.90
2018-08-30T06:49:46.808Z,19.00
2018-08-30T06:52:15.028Z,19.00
2018-08-30T06:54:43.277Z,19.00
2018-08-30T06:57:11.507Z,19.10
2018-08-30T06:59:39.813Z,19.00
2018-08-30T07:02:08.078Z,19.00
2018-08-30T07:04:36.299Z,19.00
2018-08-30T07:07:04.626Z,19.10
2018-08-30T07:09:32.976Z,19.20
2018-08-30T07:12:01.312Z,19.30
2018-08-30T07:14:29.779Z,19.20
2018-08-30T07:16:58.002Z,19.20
2018-08-30T07:19:26.187Z,19.30
2018-08-30T07:21:54.446Z,19.30
2018-08-30T07:24:22.798Z,19.50
2018-08-30T07:26:51.053Z,19.60
2018-08-30T07:29:19.322Z,19.70
2018-08-30T07:31:47.606Z,19.70
2018-08-30T07:34:15.865Z,19.70
2018-08-30T07:36:44.087Z,19.70
2018-08-30T07:39:12.962Z,19.70
2018-08-30T07:41:41.563Z,19.70
2018-08-30T07:44:12.068Z,19.70
2018-08-30T07:46:40.232Z,19.70
2018-08-30T07:49:09.930Z,19.80
2018-08-30T07:51:38.361Z,19.80
2018-08-30T07:54:06.959Z,19.80
2018-08-30T07:56:35.545Z,20.00
2018-08-30T07:59:03.838Z,20.20
2018-08-30T08:01:32.062Z,20.40
2018-08-30T08:04:00.316Z,20.60
2018-08-30T08:06:28.576Z,20.60
2018-08-30T08:08:56.844Z,20.80
2018-08-30T08:11:25.021Z,20.90
2018-08-30T08:13:53.382Z,21.10
2018-08-30T08:16:21.571Z,21.10
2018-08-30T08:18:49.836Z,21.20
2018-08-30T08:21:18.127Z,21.10
2018-08-30T08:23:46.456Z,20.80
2018-08-30T08:26:14.663Z,20.70
2018-08-30T08:28:42.931Z,21.00
2018-08-30T08:31:11.195Z,21.40
2018-08-30T08:33:39.347Z,21.60
2018-08-30T08:36:07.665Z,21.80
2018-08-30T08:38:35.869Z,21.90
2018-08-30T08:41:04.083Z,22.00
2018-08-30T08:43:32.362Z,22.00
2018-08-30T08:46:00.630Z,22.00
2018-08-30T08:48:28.936Z,22.20
2018-08-30T08:50:57.190Z,22.30
2018-08-30T08:53:25.387Z,22.10
2018-08-30T08:55:53.619Z,21.90
2018-08-30T08:58:21.963Z,21.90
2018-08-30T09:00:50.257Z,22.00
2018-08-30T09:03:18.444Z,22.20
2018-08-30T09:05:46.669Z,22.30
2018-08-30T09:08:14.892Z,22.50
2018-08-30T09:10:44.147Z,22.60
2018-08-30T09:13:12.424Z,22.80
2018-08-30T09:15:40.697Z,22.90
2018-08-30T09:18:09.667Z,23.00
2018-08-30T09:20:37.863Z,22.90
2018-08-30T09:23:06.110Z,22.60
2018-08-30T09:25:34.331Z,22.30
2018-08-30T09:28:02.564Z,22.20
2018-08-30T09:30:30.742Z,22.20
2018-08-30T09:32:58.955Z,22.30
2018-08-30T09:35:27.329Z,22.30
2018-08-30T09:37:55.554Z,22.10
2018-08-30T09:40:23.874Z,21.90
2018-08-30T09:42:52.170Z,22.00
2018-08-30T09:45:20.390Z,22.00
2018-08-30T09:47:48.602Z,22.20
2018-08-30T09:50:16.852Z,22.20
2018-08-30T09:52:45.173Z,22.20
2018-08-30T09:55:13.428Z,22.20
2018-08-30T09:57:41.735Z,22.30
2018-08-30T10:00:13.543Z,22.60
2018-08-30T10:02:47.123Z,23.00
2018-08-30T10:05:15.361Z,23.30
2018-08-30T10:07:43.602Z,23.50
2018-08-30T10:10:11.854Z,23.20
2018-08-30T10:12:40.097Z,23.00
2018-08-30T10:15:08.279Z,22.70
2018-08-30T10:17:43.165Z,22.60
2018-08-30T10:20:11.470Z,22.90
2018-08-30T10:22:39.695Z,22.90
2018-08-30T10:25:07.977Z,23.00
2018-08-30T10:27:36.320Z,23.20
2018-08-30T10:30:04.590Z,23.40
2018-08-30T10:32:33.033Z,23.60
2018-08-30T10:35:01.264Z,23.70
2018-08-30T10:37:29.497Z,23.90
2018-08-30T10:39:57.732Z,24.10
2018-08-30T10:42:25.947Z,24.20
2018-08-30T10:44:54.166Z,24.10
2018-08-30T10:47:22.389Z,23.90
2018-08-30T10:49:50.626Z,23.90
2018-08-30T10:52:18.802Z,23.90
2018-08-30T10:54:47.039Z,23.70
2018-08-30T10:57:15.266Z,23.50
2018-08-30T10:59:43.433Z,23.30
2018-08-30T11:02:11.635Z,23.10
2018-08-30T11:04:39.948Z,23.10
2018-08-30T11:07:08.604Z,23.00
2018-08-30T11:09:36.869Z,22.90
2018-08-30T11:12:05.113Z,22.70
2018-08-30T11:14:33.326Z,22.70
2018-08-30T11:17:01.561Z,22.90
2018-08-30T11:19:29.947Z,22.80
2018-08-30T11:21:58.136Z,22.80
2018-08-30T11:24:32.987Z,22.80
2018-08-30T11:27:01.230Z,22.80
2018-08-30T11:29:29.515Z,22.60
2018-08-30T11:31:57.710Z,22.60
2018-08-30T11:34:25.987Z,22.60
2018-08-30T11:36:54.198Z,22.50
2018-08-30T11:39:22.427Z,22.40
2018-08-30T11:41:50.724Z,22.30
2018-08-30T11:44:18.921Z,22.40
2018-08-30T11:46:47.139Z,22.50
2018-08-30T11:49:15.487Z,22.60
2018-08-30T11:51:43.759Z,22.70
2018-08-30T11:54:12.019Z,22.70
2018-08-30T11:56:40.199Z,22.70
2018-08-30T11:59:08.423Z,23.00
2018-08-30T12:01:36.693Z,23.20
2018-08-30T12:04:04.946Z,23.30
2018-08-30T12:06:33.242Z,23.40
2018-08-30T12:09:01.440Z,23.50
2018-08-30T12:11:29.701Z,23.50
2018-08-30T12:13:57.962Z,23.70
2018-08-30T12:16:26.168Z,23.80
2018-08-30T12:18:54.686Z,23.90
2018-08-30T12:21:22.914Z,24.00
2018-08-30T12:23:51.148Z,24.10
2018-08-30T12:26:19.466Z,24.10
2018-08-30T12:28:47.869Z,24.00
2018-08-30T12:31:16.092Z,24.00
2018-08-30T12:33:50.897Z,23.80
2018-08-30T12:36:19.107Z,23.70
2018-08-30T12:38:47.349Z,23.50
2018-08-30T12:41:15.581Z,23.50
2018-08-30T12:43:43.907Z,23.50
2018-08-30T12:46:12.102Z,23.40
2018-08-30T12:48:40.440Z,23.30
2018-08-30T12:51:08.844Z,23.20
2018-08-30T12:53:36.795Z,23.00
2018-08-30T12:56:05.390Z,23.00
2018-08-30T12:58:33.648Z,23.00
2018-08-30T13:01:01.906Z,23.00
2018-08-30T13:03:30.120Z,22.80
2018-08-30T13:05:58.535Z,22.80
2018-08-30T13:08:26.668Z,22.80
2018-08-30T13:10:55.183Z,22.90
2018-08-30T13:13:23.463Z,22.80
2018-08-30T13:15:51.808Z,22.90
2018-08-30T13:18:20.104Z,23.00
2018-08-30T13:20:48.314Z,23.00
2018-08-30T13:23:16.552Z,23.00
2018-08-30T13:25:44.750Z,22.90
2018-08-30T13:28:13.072Z,22.90
2018-08-30T13:30:41.386Z,23.00
2018-08-30T13:33:09.865Z,23.10
2018-08-30T13:35:37.906Z,23.10
2018-08-30T13:38:06.338Z,23.10
2018-08-30T13:40:34.665Z,23.20
2018-08-30T13:43:02.869Z,23.20
2018-08-30T13:45:30.927Z,23.00
2018-08-30T13:47:59.201Z,22.90
2018-08-30T13:50:27.353Z,22.80
2018-08-30T13:52:55.578Z,22.80
2018-08-30T13:55:24.056Z,22.80
2018-08-30T13:57:52.558Z,22.80
2018-08-30T14:00:21.103Z,22.90
2018-08-30T14:02:48.782Z,23.00
2018-08-30T14:05:17.095Z,23.00
2018-08-30T14:07:45.381Z,23.10
2018-08-30T14:10:13.717Z,23.10
2018-08-30T14:12:41.826Z,23.20
2018-08-30T14:15:10.297Z,23.30
2018-08-30T14:17:38.168Z,22.90
2018-08-30T14:20:06.902Z,22.90
2018-08-30T14:22:35.557Z,22.80
2018-08-30T14:25:03.795Z,22.70
2018-08-30T14:27:32.107Z,22.70
2018-08-30T14:30:00.604Z,22.60
2018-08-30T14:32:28.910Z,22.40
2018-08-30T14:34:57.414Z,22.30
2018-08-30T14:37:25.740Z,22.20
2018-08-30T14:39:53.837Z,22.20
2018-08-30T14:42:22.112Z,22.00
2018-08-30T14:44:50.401Z,22.00
2018-08-30T14:47:19.625Z,22.00
2018-08-30T14:49:47.686Z,22.10
2018-08-30T14:52:15.910Z,22.10
2018-08-30T14:54:44.130Z,22.10
2018-08-30T14:57:12.504Z,22.10
2018-08-30T14:59:40.718Z,21.80
2018-08-30T15:02:08.944Z,21.70
2018-08-30T15:04:37.269Z,21.60
2018-08-30T15:07:05.490Z,21.60
2018-08-30T15:09:33.667Z,21.70
2018-08-30T15:12:01.950Z,21.70
2018-08-30T15:14:30.141Z,21.80
2018-08-30T15:16:58.478Z,22.00
2018-08-30T15:19:26.762Z,22.10
2018-08-30T15:21:55.117Z,22.00
2018-08-30T15:24:23.231Z,22.00
2018-08-30T15:26:53.612Z,22.10
2018-08-30T15:29:21.874Z,22.10
2018-08-30T15:31:50.166Z,22.30
2018-08-30T15:34:18.327Z,22.40
2018-08-30T15:36:46.527Z,22.30
2018-08-30T15:39:14.854Z,22.10
2018-08-30T15:41:43.138Z,22.10
2018-08-30T15:44:11.319Z,22.30
2018-08-30T15:46:39.574Z,22.40
2018-08-30T15:49:07.765Z,22.50
2018-08-30T15:51:35.939Z,22.60
2018-08-30T15:54:04.185Z,22.60
2018-08-30T15:56:32.421Z,22.60
2018-08-30T15:59:00.635Z,22.60
2018-08-30T16:01:28.985Z,22.30
2018-08-30T16:03:57.282Z,22.20
2018-08-30T16:06:25.495Z,22.20
2018-08-30T16:08:53.720Z,22.30
2018-08-30T16:11:21.968Z,22.20
2018-08-30T16:13:50.196Z,22.20
2018-08-30T16:16:18.422Z,22.30
2018-08-30T16:18:46.870Z,22.10
2018-08-30T16:21:15.010Z,21.50
2018-08-30T16:23:43.307Z,21.50
2018-08-30T16:26:11.564Z,21.30
2018-08-30T16:28:39.806Z,21.40
2018-08-30T16:31:08.078Z,21.40
2018-08-30T16:33:36.305Z,21.20
2018-08-30T16:36:04.969Z,21.10
2018-08-30T16:38:33.154Z,20.90
2018-08-30T16:41:01.498Z,21.00
2018-08-30T16:43:29.763Z,21.00
2018-08-30T16:45:58.037Z,21.00
2018-08-30T16:48:26.399Z,21.10
2018-08-30T16:50:54.745Z,21.10
2018-08-30T16:53:23.207Z,21.00
2018-08-30T16:55:51.273Z,21.10
2018-08-30T16:58:19.461Z,20.90
2018-08-30T17:00:47.720Z,20.90
2018-08-30T17:03:16.080Z,20.90
2018-08-30T17:05:44.454Z,20.80
2018-08-30T17:08:12.648Z,20.60
2018-08-30T17:10:40.954Z,20.50
2018-08-30T17:13:09.175Z,20.60
2018-08-30T17:15:37.443Z,20.50
2018-08-30T17:18:05.808Z,20.50
2018-08-30T17:20:42.905Z,20.60
2018-08-30T17:23:11.429Z,20.60
2018-08-30T17:25:40.441Z,20.80
2018-08-30T17:28:08.704Z,20.80
2018-08-30T17:30:36.993Z,20.60
2018-08-30T17:33:06.152Z,20.70
2018-08-30T17:35:34.391Z,20.70
2018-08-30T17:38:02.600Z,20.60
2018-08-30T17:40:30.789Z,20.70
2018-08-30T17:42:58.999Z,20.70
2018-08-30T17:45:27.420Z,20.80
2018-08-30T17:47:55.502Z,20.90
2018-08-30T17:50:23.850Z,20.90
2018-08-30T17:52:52.019Z,20.80
2018-08-30T17:55:20.362Z,20.80
2018-08-30T17:57:48.679Z,20.90
2018-08-30T18:00:16.913Z,20.80
2018-08-30T18:02:46.041Z,20.80
2018-08-30T18:05:14.973Z,20.70
2018-08-30T18:07:43.509Z,20.60
2018-08-30T18:10:11.711Z,20.40
2018-08-30T18:12:40.509Z,20.30
2018-08-30T18:15:10.761Z,20.20
2018-08-30T18:17:39.125Z,20.10
2018-08-30T18:20:07.671Z,20.10
2018-08-30T18:22:35.982Z,20.10
2018-08-30T18:25:04.415Z,20.20
2018-08-30T18:27:32.744Z,20.30
2018-08-30T18:30:01.027Z,20.20
2018-08-30T18:32:29.271Z,20.10
2018-08-30T18:34:57.637Z,20.10
2018-08-30T18:37:25.854Z,20.00
2018-08-30T18:39:54.147Z,20.10
2018-08-30T18:42:22.473Z,20.20
2018-08-30T18:44:50.788Z,20.30
2018-08-30T18:47:19.126Z,20.20
2018-08-30T18:49:47.404Z,20.20
2018-08-30T18:52:15.637Z,20.30
2018-08-30T18:54:43.868Z,20.30
2018-08-30T18:57:12.144Z,20.40
2018-08-30T18:59:40.402Z,20.30
2018-08-30T19:02:08.598Z,20.30
2018-08-30T19:04:36.791Z,20.20
2018-08-30T19:07:05.049Z,20.20
2018-08-30T19:09:33.331Z,20.10
2018-08-30T19:12:01.582Z,20.10
2018-08-30T19:14:29.846Z,20.10
2018-08-30T19:17:03.528Z,20.10
2018-08-30T19:19:34.067Z,20.10
2018-08-30T19:22:02.395Z,20.00
2018-08-30T19:24:35.920Z,20.00
2018-08-30T19:27:04.193Z,20.00
2018-08-30T19:29:37.878Z,19.90
2018-08-30T19:32:06.251Z,19.90
2018-08-30T19:34:34.493Z,19.80
2018-08-30T19:37:02.756Z,19.80
2018-08-30T19:39:31.082Z,19.80
2018-08-30T19:42:00.124Z,19.70
2018-08-30T19:44:28.356Z,19.70
2018-08-30T19:46:56.608Z,19.70
2018-08-30T19:49:24.809Z,19.70
2018-08-30T19:51:53.046Z,19.70
2018-08-30T19:54:21.464Z,19.70
2018-08-30T19:56:49.609Z,19.70
2018-08-30T19:59:17.899Z,19.70
2018-08-30T20:01:46.314Z,19.70
2018-08-30T20:04:14.578Z,19.60
2018-08-30T20:06:42.794Z,19.60
2018-08-30T20:09:11.073Z,19.60
2018-08-30T20:11:39.255Z,19.70
2018-08-30T20:14:07.469Z,19.70
2018-08-30T20:16:35.780Z,19.80
2018-08-30T20:19:04.132Z,19.80
2018-08-30T20:21:32.397Z,19.90
2018-08-30T20:24:00.685Z,19.80
2018-08-30T20:26:28.958Z,19.80
2018-08-30T20:28:57.191Z,19.70
2018-08-30T20:31:26.338Z,19.60
2018-08-30T20:33:54.561Z,19.60
2018-08-30T20:36:22.850Z,19.50
2018-08-30T20:38:51.174Z,19.50
2018-08-30T20:41:19.614Z,19.40
2018-08-30T20:43:47.882Z,19.30
2018-08-30T20:46:16.162Z,19.30
2018-08-30T20:48:44.465Z,19.30
2018-08-30T20:51:12.734Z,19.30
2018-08-30T20:53:41.017Z,19.30
2018-08-30T20:56:09.280Z,19.30
2018-08-30T20:58:37.544Z,19.30
2018-08-30T21:01:05.725Z,19.10
2018-08-30T21:03:33.907Z,19.10
2018-08-30T21:06:02.157Z,19.00
2018-08-30T21:08:30.434Z,18.90
2018-08-30T21:10:58.673Z,18.90
2018-08-30T21:13:26.870Z,18.90
2018-08-30T21:15:55.068Z,18.80
2018-08-30T21:18:23.320Z,18.80
2018-08-30T21:20:51.559Z,18.80
2018-08-30T21:23:19.923Z,18.70
2018-08-30T21:25:48.173Z,18.70
2018-08-30T21:28:16.764Z,18.70
2018-08-30T21:30:44.946Z,18.60
2018-08-30T21:33:13.303Z,18.60
2018-08-30T21:35:41.644Z,18.60
2018-08-30T21:38:09.974Z,18.50
2018-08-30T21:40:38.169Z,18.50
2018-08-30T21:43:06.626Z,18.50
2018-08-30T21:45:34.854Z,18.50
2018-08-30T21:48:03.063Z,18.50
2018-08-30T21:50:31.302Z,18.50
2018-08-30T21:52:59.542Z,18.50
2018-08-30T21:55:27.817Z,18.60
2018-08-30T21:57:56.079Z,18.60
2018-08-30T22:00:24.370Z,18.70
2018-08-30T22:02:52.737Z,18.70
2018-08-30T22:05:20.910Z,18.70
2018-08-30T22:07:49.164Z,18.70
2018-08-30T22:10:17.418Z,18.80
2018-08-30T22:12:45.639Z,18.80
2018-08-30T22:15:13.913Z,18.90
2018-08-30T22:17:42.152Z,18.80
2018-08-30T22:20:11.036Z,18.80
2018-08-30T22:22:39.252Z,18.70
2018-08-30T22:25:07.513Z,18.60
2018-08-30T22:27:35.900Z,18.70
2018-08-30T22:30:06.798Z,18.80
2018-08-30T22:32:35.029Z,18.60
2018-08-30T22:35:03.288Z,18.50
2018-08-30T22:37:31.533Z,18.50
2018-08-30T22:39:59.771Z,18.40
2018-08-30T22:42:28.091Z,18.40
2018-08-30T22:44:56.294Z,18.20
2018-08-30T22:47:24.567Z,18.10
2018-08-30T22:49:52.832Z,18.10
2018-08-30T22:52:21.095Z,18.00
2018-08-30T22:54:49.314Z,18.00
2018-08-30T22:57:18.396Z,18.00
2018-08-30T22:59:46.653Z,18.10
2018-08-30T23:02:14.932Z,18.00
2018-08-30T23:04:43.371Z,18.00
2018-08-30T23:07:11.805Z,18.10
2018-08-30T23:09:40.037Z,18.10
2018-08-30T23:12:08.288Z,18.20
2018-08-30T23:14:36.745Z,18.20
2018-08-30T23:17:05.126Z,18.20
2018-08-30T23:19:33.596Z,18.20
2018-08-30T23:22:01.932Z,18.20
2018-08-30T23:24:30.152Z,18.20
2018-08-30T23:26:58.438Z,18.20
2018-08-30T23:29:26.660Z,18.20
2018-08-30T23:31:55.123Z,18.20
2018-08-30T23:34:23.357Z,18.10
2018-08-30T23:36:51.638Z,18.00
2018-08-30T23:39:19.879Z,18.10
2018-08-30T23:41:48.137Z,18.00
2018-08-30T23:44:16.474Z,18.00
2018-08-30T23:46:44.713Z,17.90
2018-08-30T23:49:12.960Z,17.80
2018-08-30T23:51:41.211Z,17.80
2018-08-30T23:54:09.467Z,17.80
2018-08-30T23:56:37.719Z,17.80
2018-08-30T23:59:17.274Z,17.80
